sensor_id;sensor_type;location;lat;lon;timestamp;temperature;humidity
34640;DHT22;22600;48.186;11.526;2022-11-15T00:01:39;18.00;72.70
34640;DHT22;22600;48.186;11.526;2022-11-15T00:04:06;18.00;72.00
34640;DHT22;22600;48.186;11.526;2022-11-15T00:06:32;18.00;71.40
34640;DHT22;22600;48.186;11.526;2022-11-15T00:08:58;18.00;72.70
34640;DHT22;22600;48.186;11.526;2022-11-15T00:11:25;18.00;72.00
34640;DHT22;22600;48.186;11.526;2022-11-15T00:13:50;18.10;72.00
34640;DHT22;22600;48.186;11.526;2022-11-15T00:16:16;18.00;71.40
34640;DHT22;22600;48.186;11.526;2022-11-15T00:18:42;18.00;72.00
34640;DHT22;22600;48.186;11.526;2022-11-15T00:21:10;18.00;71.40
34640;DHT22;22600;48.186;11.526;2022-11-15T00:23:36;18.00;72.00
34640;DHT22;22600;48.186;11.526;2022-11-15T00:26:02;18.00;71.90
34640;DHT22;22600;48.186;11.526;2022-11-15T00:28:28;18.00;71.30
34640;DHT22;22600;48.186;11.526;2022-11-15T00:31:03;18.00;71.40
34640;DHT22;22600;48.186;11.526;2022-11-15T00:33:29;18.00;72.00
34640;DHT22;22600;48.186;11.526;2022-11-15T00:36:11;18.00;72.00
34640;DHT22;22600;48.186;11.526;2022-11-15T00:38:38;18.00;71.90
34640;DHT22;22600;48.186;11.526;2022-11-15T00:41:05;18.00;72.00
34640;DHT22;22600;48.186;11.526;2022-11-15T00:43:31;18.00;72.70
34640;DHT22;22600;48.186;11.526;2022-11-15T00:45:57;18.00;72.00
34640;DHT22;22600;48.186;11.526;2022-11-15T00:48:23;17.90;71.90
34640;DHT22;22600;48.186;11.526;2022-11-15T00:50:49;18.00;71.30
34640;DHT22;22600;48.186;11.526;2022-11-15T00:53:15;18.00;71.90
34640;DHT22;22600;48.186;11.526;2022-11-15T00:55:41;18.00;71.30
34640;DHT22;22600;48.186;11.526;2022-11-15T00:58:06;18.00;71.90
34640;DHT22;22600;48.186;11.526;2022-11-15T01:00:32;18.00;71.30
34640;DHT22;22600;48.186;11.526;2022-11-15T01:02:57;18.00;71.90
34640;DHT22;22600;48.186;11.526;2022-11-15T01:05:23;18.00;71.90
34640;DHT22;22600;48.186;11.526;2022-11-15T01:07:53;18.00;71.30
34640;DHT22;22600;48.186;11.526;2022-11-15T01:10:19;18.00;71.90
34640;DHT22;22600;48.186;11.526;2022-11-15T01:12:45;18.00;71.80
34640;DHT22;22600;48.186;11.526;2022-11-15T01:15:10;20.40;73.40
34640;DHT22;22600;48.186;11.526;2022-11-15T01:17:36;18.00;71.40
34640;DHT22;22600;48.186;11.526;2022-11-15T01:20:02;18.00;71.20
34640;DHT22;22600;48.186;11.526;2022-11-15T01:22:28;18.00;71.30
34640;DHT22;22600;48.186;11.526;2022-11-15T01:24:53;15.50;69.70
34640;DHT22;22600;48.186;11.526;2022-11-15T01:27:19;18.00;71.20
34640;DHT22;22600;48.186;11.526;2022-11-15T01:29:44;18.00;71.30
34640;DHT22;22600;48.186;11.526;2022-11-15T01:32:10;18.00;71.80
34640;DHT22;22600;48.186;11.526;2022-11-15T01:34:35;18.00;71.80
34640;DHT22;22600;48.186;11.526;2022-11-15T01:37:01;18.00;71.20
34640;DHT22;22600;48.186;11.526;2022-11-15T01:39:27;18.00;71.20
34640;DHT22;22600;48.186;11.526;2022-11-15T01:41:53;18.00;71.80
34640;DHT22;22600;48.186;11.526;2022-11-15T01:46:57;18.00;71.20
34640;DHT22;22600;48.186;11.526;2022-11-15T01:49:24;18.00;71.20
34640;DHT22;22600;48.186;11.526;2022-11-15T01:51:51;18.00;71.20
34640;DHT22;22600;48.186;11.526;2022-11-15T01:54:19;18.00;71.90
34640;DHT22;22600;48.186;11.526;2022-11-15T01:56:51;18.00;71.20
34640;DHT22;22600;48.186;11.526;2022-11-15T01:59:18;18.00;71.20
34640;DHT22;22600;48.186;11.526;2022-11-15T02:01:44;18.00;71.20
34640;DHT22;22600;48.186;11.526;2022-11-15T02:06:36;18.00;71.20
34640;DHT22;22600;48.186;11.526;2022-11-15T02:09:01;18.00;71.30
34640;DHT22;22600;48.186;11.526;2022-11-15T02:11:28;17.90;71.10
34640;DHT22;22600;48.186;11.526;2022-11-15T02:13:55;18.00;71.80
34640;DHT22;22600;48.186;11.526;2022-11-15T02:16:41;18.00;71.20
34640;DHT22;22600;48.186;11.526;2022-11-15T02:30:21;18.00;71.20
34640;DHT22;22600;48.186;11.526;2022-11-15T02:33:28;20.30;72.60
34640;DHT22;22600;48.186;11.526;2022-11-15T02:36:00;18.00;71.20
34640;DHT22;22600;48.186;11.526;2022-11-15T02:41:13;18.00;71.70
34640;DHT22;22600;48.186;11.526;2022-11-15T02:46:57;18.00;71.20
34640;DHT22;22600;48.186;11.526;2022-11-15T02:49:41;17.90;71.80
34640;DHT22;22600;48.186;11.526;2022-11-15T02:52:07;18.00;71.10
34640;DHT22;22600;48.186;11.526;2022-11-15T02:54:33;18.00;71.70
34640;DHT22;22600;48.186;11.526;2022-11-15T02:57:02;17.90;71.10
34640;DHT22;22600;48.186;11.526;2022-11-15T03:00:01;18.00;71.80
34640;DHT22;22600;48.186;11.526;2022-11-15T03:10:17;17.90;71.10
34640;DHT22;22600;48.186;11.526;2022-11-15T03:12:56;17.60;70.80
34640;DHT22;22600;48.186;11.526;2022-11-15T03:15:37;16.60;70.90
34640;DHT22;22600;48.186;11.526;2022-11-15T03:18:19;17.90;71.70
34640;DHT22;22600;48.186;11.526;2022-11-15T03:20:47;18.00;71.80
34640;DHT22;22600;48.186;11.526;2022-11-15T03:23:13;17.90;71.70
34640;DHT22;22600;48.186;11.526;2022-11-15T03:25:46;18.00;71.70
34640;DHT22;22600;48.186;11.526;2022-11-15T03:28:19;18.00;71.70
34640;DHT22;22600;48.186;11.526;2022-11-15T03:30:48;17.90;71.60
34640;DHT22;22600;48.186;11.526;2022-11-15T03:33:15;17.90;71.60
34640;DHT22;22600;48.186;11.526;2022-11-15T03:35:44;17.90;71.10
34640;DHT22;22600;48.186;11.526;2022-11-15T03:38:22;18.00;71.70
34640;DHT22;22600;48.186;11.526;2022-11-15T03:41:03;18.00;71.70
34640;DHT22;22600;48.186;11.526;2022-11-15T03:43:46;18.00;71.70
34640;DHT22;22600;48.186;11.526;2022-11-15T03:46:19;17.90;71.10
34640;DHT22;22600;48.186;11.526;2022-11-15T03:48:54;17.90;71.60
34640;DHT22;22600;48.186;11.526;2022-11-15T03:51:22;18.00;71.70
34640;DHT22;22600;48.186;11.526;2022-11-15T03:53:48;17.90;71.60
34640;DHT22;22600;48.186;11.526;2022-11-15T03:56:13;17.90;71.00
34640;DHT22;22600;48.186;11.526;2022-11-15T03:58:39;18.00;71.60
34640;DHT22;22600;48.186;11.526;2022-11-15T04:01:04;18.00;71.60
34640;DHT22;22600;48.186;11.526;2022-11-15T04:03:30;20.50;73.20
34640;DHT22;22600;48.186;11.526;2022-11-15T04:05:55;17.90;71.00
34640;DHT22;22600;48.186;11.526;2022-11-15T04:08:21;16.10;69.80
34640;DHT22;22600;48.186;11.526;2022-11-15T04:10:49;18.00;71.60
34640;DHT22;22600;48.186;11.526;2022-11-15T04:13:14;17.90;71.50
34640;DHT22;22600;48.186;11.526;2022-11-15T04:15:40;17.90;71.60
34640;DHT22;22600;48.186;11.526;2022-11-15T04:18:06;18.00;71.60
34640;DHT22;22600;48.186;11.526;2022-11-15T04:20:32;17.90;71.50
34640;DHT22;22600;48.186;11.526;2022-11-15T04:23:18;17.90;71.50
34640;DHT22;22600;48.186;11.526;2022-11-15T04:26:17;17.90;70.90
34640;DHT22;22600;48.186;11.526;2022-11-15T04:28:43;17.90;71.50
34640;DHT22;22600;48.186;11.526;2022-11-15T04:31:28;17.90;70.90
34640;DHT22;22600;48.186;11.526;2022-11-15T04:33:54;17.90;70.90
34640;DHT22;22600;48.186;11.526;2022-11-15T04:36:20;17.90;71.50
34640;DHT22;22600;48.186;11.526;2022-11-15T04:39:04;17.90;71.50
34640;DHT22;22600;48.186;11.526;2022-11-15T04:41:30;17.90;71.50
34640;DHT22;22600;48.186;11.526;2022-11-15T04:43:55;18.00;71.60
34640;DHT22;22600;48.186;11.526;2022-11-15T04:46:22;17.90;71.50
34640;DHT22;22600;48.186;11.526;2022-11-15T04:48:49;18.00;71.00
34640;DHT22;22600;48.186;11.526;2022-11-15T04:51:15;17.90;72.20
34640;DHT22;22600;48.186;11.526;2022-11-15T04:53:40;17.90;71.50
34640;DHT22;22600;48.186;11.526;2022-11-15T04:56:06;17.90;71.50
34640;DHT22;22600;48.186;11.526;2022-11-15T04:58:31;18.00;70.90
34640;DHT22;22600;48.186;11.526;2022-11-15T05:00:57;17.90;71.50
34640;DHT22;22600;48.186;11.526;2022-11-15T05:03:23;17.90;70.90
34640;DHT22;22600;48.186;11.526;2022-11-15T05:06:07;17.90;71.50
34640;DHT22;22600;48.186;11.526;2022-11-15T05:08:32;17.90;70.90
34640;DHT22;22600;48.186;11.526;2022-11-15T05:10:58;17.90;71.50
34640;DHT22;22600;48.186;11.526;2022-11-15T05:13:24;18.00;71.50
34640;DHT22;22600;48.186;11.526;2022-11-15T05:15:49;17.90;70.80
34640;DHT22;22600;48.186;11.526;2022-11-15T05:18:15;17.90;70.80
34640;DHT22;22600;48.186;11.526;2022-11-15T05:20:41;17.90;70.90
34640;DHT22;22600;48.186;11.526;2022-11-15T05:23:06;17.90;71.40
34640;DHT22;22600;48.186;11.526;2022-11-15T05:25:32;17.90;70.80
34640;DHT22;22600;48.186;11.526;2022-11-15T05:27:58;17.90;71.40
34640;DHT22;22600;48.186;11.526;2022-11-15T05:30:23;17.90;71.40
34640;DHT22;22600;48.186;11.526;2022-11-15T05:32:49;17.90;70.80
34640;DHT22;22600;48.186;11.526;2022-11-15T05:35:27;17.90;71.40
34640;DHT22;22600;48.186;11.526;2022-11-15T05:37:53;17.90;71.40
34640;DHT22;22600;48.186;11.526;2022-11-15T05:40:19;17.90;70.90
34640;DHT22;22600;48.186;11.526;2022-11-15T05:42:45;17.80;71.30
34640;DHT22;22600;48.186;11.526;2022-11-15T05:45:11;17.90;71.40
34640;DHT22;22600;48.186;11.526;2022-11-15T05:47:37;17.90;70.80
34640;DHT22;22600;48.186;11.526;2022-11-15T05:50:04;17.90;71.40
34640;DHT22;22600;48.186;11.526;2022-11-15T05:52:31;17.90;71.40
34640;DHT22;22600;48.186;11.526;2022-11-15T05:54:59;17.90;70.80
34640;DHT22;22600;48.186;11.526;2022-11-15T05:59:51;17.90;70.80
34640;DHT22;22600;48.186;11.526;2022-11-15T06:02:17;17.90;70.80
34640;DHT22;22600;48.186;11.526;2022-11-15T06:04:42;17.90;71.40
34640;DHT22;22600;48.186;11.526;2022-11-15T06:07:08;17.90;71.40
34640;DHT22;22600;48.186;11.526;2022-11-15T06:09:33;17.90;71.40
34640;DHT22;22600;48.186;11.526;2022-11-15T06:11:59;17.90;71.40
34640;DHT22;22600;48.186;11.526;2022-11-15T06:14:24;17.90;71.40
34640;DHT22;22600;48.186;11.526;2022-11-15T06:16:50;17.90;71.10
34640;DHT22;22600;48.186;11.526;2022-11-15T06:19:15;18.00;71.60
34640;DHT22;22600;48.186;11.526;2022-11-15T06:21:42;17.90;71.30
34640;DHT22;22600;48.186;11.526;2022-11-15T06:24:07;17.90;71.50
34640;DHT22;22600;48.186;11.526;2022-11-15T06:26:33;17.90;72.10
34640;DHT22;22600;48.186;11.526;2022-11-15T06:28:58;17.90;71.80
34640;DHT22;22600;48.186;11.526;2022-11-15T06:31:24;17.90;71.90
34640;DHT22;22600;48.186;11.526;2022-11-15T06:33:50;17.90;72.40
34640;DHT22;22600;48.186;11.526;2022-11-15T06:36:16;18.00;71.90
34640;DHT22;22600;48.186;11.526;2022-11-15T06:38:43;17.90;72.50
34640;DHT22;22600;48.186;11.526;2022-11-15T06:41:10;17.90;71.90
34640;DHT22;22600;48.186;11.526;2022-11-15T06:43:36;17.90;71.80
34640;DHT22;22600;48.186;11.526;2022-11-15T06:46:03;18.00;72.00
34640;DHT22;22600;48.186;11.526;2022-11-15T06:48:29;17.90;72.40
34640;DHT22;22600;48.186;11.526;2022-11-15T06:50:57;17.90;72.50
34640;DHT22;22600;48.186;11.526;2022-11-15T06:53:23;17.90;72.10
34640;DHT22;22600;48.186;11.526;2022-11-15T06:55:49;17.90;72.70
34640;DHT22;22600;48.186;11.526;2022-11-15T06:58:15;17.90;72.20
34640;DHT22;22600;48.186;11.526;2022-11-15T07:00:41;17.90;72.70
34640;DHT22;22600;48.186;11.526;2022-11-15T07:03:07;18.00;72.80
34640;DHT22;22600;48.186;11.526;2022-11-15T07:05:33;18.00;72.30
34640;DHT22;22600;48.186;11.526;2022-11-15T07:07:58;18.00;72.20
34640;DHT22;22600;48.186;11.526;2022-11-15T07:10:25;17.90;72.80
34640;DHT22;22600;48.186;11.526;2022-11-15T07:12:52;18.00;72.80
34640;DHT22;22600;48.186;11.526;2022-11-15T07:15:19;18.00;72.30
34640;DHT22;22600;48.186;11.526;2022-11-15T07:17:45;18.00;72.20
34640;DHT22;22600;48.186;11.526;2022-11-15T07:20:11;18.00;72.30
34640;DHT22;22600;48.186;11.526;2022-11-15T07:22:39;18.00;72.30
34640;DHT22;22600;48.186;11.526;2022-11-15T07:25:05;18.00;72.20
34640;DHT22;22600;48.186;11.526;2022-11-15T07:27:30;18.00;72.20
34640;DHT22;22600;48.186;11.526;2022-11-15T07:29:56;18.00;72.30
34640;DHT22;22600;48.186;11.526;2022-11-15T07:32:21;18.00;72.20
34640;DHT22;22600;48.186;11.526;2022-11-15T07:34:47;17.90;72.80
34640;DHT22;22600;48.186;11.526;2022-11-15T07:37:13;18.00;72.90
34640;DHT22;22600;48.186;11.526;2022-11-15T07:39:38;18.00;72.90
34640;DHT22;22600;48.186;11.526;2022-11-15T07:42:04;18.00;72.40
34640;DHT22;22600;48.186;11.526;2022-11-15T07:44:48;18.00;72.90
34640;DHT22;22600;48.186;11.526;2022-11-15T07:47:13;18.00;72.90
34640;DHT22;22600;48.186;11.526;2022-11-15T07:49:39;18.00;72.30
34640;DHT22;22600;48.186;11.526;2022-11-15T07:52:04;18.00;72.20
34640;DHT22;22600;48.186;11.526;2022-11-15T07:56:56;18.00;72.20
34640;DHT22;22600;48.186;11.526;2022-11-15T07:59:22;18.00;72.70
34640;DHT22;22600;48.186;11.526;2022-11-15T08:01:47;18.00;72.70
34640;DHT22;22600;48.186;11.526;2022-11-15T08:04:13;18.00;72.70
34640;DHT22;22600;48.186;11.526;2022-11-15T08:06:39;18.00;72.60
34640;DHT22;22600;48.186;11.526;2022-11-15T08:09:04;18.00;72.00
34640;DHT22;22600;48.186;11.526;2022-11-15T08:11:30;18.00;72.00
34640;DHT22;22600;48.186;11.526;2022-11-15T08:13:55;18.00;72.60
34640;DHT22;22600;48.186;11.526;2022-11-15T08:16:21;18.00;72.00
34640;DHT22;22600;48.186;11.526;2022-11-15T08:18:47;18.10;72.70
34640;DHT22;22600;48.186;11.526;2022-11-15T08:21:18;18.10;72.20
34640;DHT22;22600;48.186;11.526;2022-11-15T08:23:44;18.00;72.60
34640;DHT22;22600;48.186;11.526;2022-11-15T08:26:09;18.00;72.60
34640;DHT22;22600;48.186;11.526;2022-11-15T08:28:35;18.10;72.10
34640;DHT22;22600;48.186;11.526;2022-11-15T08:31:01;18.00;72.60
34640;DHT22;22600;48.186;11.526;2022-11-15T08:33:28;18.10;73.30
34640;DHT22;22600;48.186;11.526;2022-11-15T08:35:56;18.00;72.50
34640;DHT22;22600;48.186;11.526;2022-11-15T08:38:22;18.10;72.60
34640;DHT22;22600;48.186;11.526;2022-11-15T08:40:48;19.60;72.90
34640;DHT22;22600;48.186;11.526;2022-11-15T08:43:15;18.00;71.90
34640;DHT22;22600;48.186;11.526;2022-11-15T08:45:40;18.10;72.00
34640;DHT22;22600;48.186;11.526;2022-11-15T08:48:06;18.00;71.80
34640;DHT22;22600;48.186;11.526;2022-11-15T08:50:32;18.10;72.60
34640;DHT22;22600;48.186;11.526;2022-11-15T08:52:57;18.10;72.50
34640;DHT22;22600;48.186;11.526;2022-11-15T08:55:28;18.10;71.90
34640;DHT22;22600;48.186;11.526;2022-11-15T08:57:57;18.10;71.90
34640;DHT22;22600;48.186;11.526;2022-11-15T09:00:22;18.10;72.00
34640;DHT22;22600;48.186;11.526;2022-11-15T09:02:48;18.10;72.50
34640;DHT22;22600;48.186;11.526;2022-11-15T09:05:14;18.10;72.50
34640;DHT22;22600;48.186;11.526;2022-11-15T09:07:41;18.10;72.50
34640;DHT22;22600;48.186;11.526;2022-11-15T09:10:06;18.10;72.50
34640;DHT22;22600;48.186;11.526;2022-11-15T09:12:32;18.20;72.50
34640;DHT22;22600;48.186;11.526;2022-11-15T09:14:58;18.20;72.50
34640;DHT22;22600;48.186;11.526;2022-11-15T09:17:23;18.20;71.90
34640;DHT22;22600;48.186;11.526;2022-11-15T09:19:49;18.10;72.40
34640;DHT22;22600;48.186;11.526;2022-11-15T09:22:14;18.20;72.40
34640;DHT22;22600;48.186;11.526;2022-11-15T09:24:40;18.20;72.50
34640;DHT22;22600;48.186;11.526;2022-11-15T09:27:06;18.20;72.00
34640;DHT22;22600;48.186;11.526;2022-11-15T09:29:32;18.20;72.40
34640;DHT22;22600;48.186;11.526;2022-11-15T09:31:57;18.20;71.80
34640;DHT22;22600;48.186;11.526;2022-11-15T09:34:23;18.20;72.50
34640;DHT22;22600;48.186;11.526;2022-11-15T09:36:48;18.20;72.40
34640;DHT22;22600;48.186;11.526;2022-11-15T09:39:15;18.20;72.40
34640;DHT22;22600;48.186;11.526;2022-11-15T09:44:36;18.20;72.40
34640;DHT22;22600;48.186;11.526;2022-11-15T09:49:57;18.30;71.90
34640;DHT22;22600;48.186;11.526;2022-11-15T09:52:24;18.30;71.90
34640;DHT22;22600;48.186;11.526;2022-11-15T09:54:51;18.30;72.50
34640;DHT22;22600;48.186;11.526;2022-11-15T09:57:41;18.30;72.50
34640;DHT22;22600;48.186;11.526;2022-11-15T10:05:28;18.30;71.90
34640;DHT22;22600;48.186;11.526;2022-11-15T10:08:09;18.30;72.50
34640;DHT22;22600;48.186;11.526;2022-11-15T10:10:47;18.30;72.50
34640;DHT22;22600;48.186;11.526;2022-11-15T10:13:25;18.30;72.50
34640;DHT22;22600;48.186;11.526;2022-11-15T10:15:53;18.30;72.00
34640;DHT22;22600;48.186;11.526;2022-11-15T10:18:53;18.30;72.50
34640;DHT22;22600;48.186;11.526;2022-11-15T10:21:17;18.30;72.50
34640;DHT22;22600;48.186;11.526;2022-11-15T10:23:44;18.30;72.50
34640;DHT22;22600;48.186;11.526;2022-11-15T10:26:13;18.40;72.60
34640;DHT22;22600;48.186;11.526;2022-11-15T10:28:40;18.30;72.50
34640;DHT22;22600;48.186;11.526;2022-11-15T10:31:22;18.30;72.50
34640;DHT22;22600;48.186;11.526;2022-11-15T10:33:48;18.40;72.60
34640;DHT22;22600;48.186;11.526;2022-11-15T10:36:15;18.30;71.90
34640;DHT22;22600;48.186;11.526;2022-11-15T10:46:39;18.30;72.00
34640;DHT22;22600;48.186;11.526;2022-11-15T10:52:28;18.30;71.90
34640;DHT22;22600;48.186;11.526;2022-11-15T10:57:16;18.30;72.50
34640;DHT22;22600;48.186;11.526;2022-11-15T10:59:49;18.40;72.60
34640;DHT22;22600;48.186;11.526;2022-11-15T11:03:08;16.30;71.30
34640;DHT22;22600;48.186;11.526;2022-11-15T11:05:34;18.40;72.60
34640;DHT22;22600;48.186;11.526;2022-11-15T11:10:28;18.40;72.60
34640;DHT22;22600;48.186;11.526;2022-11-15T11:12:54;18.30;72.60
34640;DHT22;22600;48.186;11.526;2022-11-15T11:15:20;18.40;72.10
34640;DHT22;22600;48.186;11.526;2022-11-15T11:18:10;17.10;71.80
34640;DHT22;22600;48.186;11.526;2022-11-15T11:20:45;18.40;72.60
34640;DHT22;22600;48.186;11.526;2022-11-15T11:23:44;18.40;72.70
34640;DHT22;22600;48.186;11.526;2022-11-15T11:26:35;18.40;72.00
34640;DHT22;22600;48.186;11.526;2022-11-15T11:42:39;19.30;73.20
34640;DHT22;22600;48.186;11.526;2022-11-15T11:45:18;18.40;72.70
34640;DHT22;22600;48.186;11.526;2022-11-15T11:50:42;18.40;72.70
34640;DHT22;22600;48.186;11.526;2022-11-15T11:53:30;18.40;72.70
34640;DHT22;22600;48.186;11.526;2022-11-15T11:55:58;18.40;72.70
34640;DHT22;22600;48.186;11.526;2022-11-15T11:58:36;18.40;72.20
34640;DHT22;22600;48.186;11.526;2022-11-15T12:01:24;18.40;72.20
34640;DHT22;22600;48.186;11.526;2022-11-15T12:03:58;18.40;72.70
34640;DHT22;22600;48.186;11.526;2022-11-15T12:15:03;18.40;72.80
34640;DHT22;22600;48.186;11.526;2022-11-15T12:17:02;18.40;72.20
34640;DHT22;22600;48.186;11.526;2022-11-15T12:19:29;18.40;73.20
34640;DHT22;22600;48.186;11.526;2022-11-15T12:28:13;18.40;72.20
34640;DHT22;22600;48.186;11.526;2022-11-15T12:30:50;18.40;72.80
34640;DHT22;22600;48.186;11.526;2022-11-15T12:36:01;18.40;72.40
34640;DHT22;22600;48.186;11.526;2022-11-15T12:39:04;18.40;72.90
34640;DHT22;22600;48.186;11.526;2022-11-15T12:41:35;18.40;72.30
34640;DHT22;22600;48.186;11.526;2022-11-15T12:44:02;18.30;72.90
34640;DHT22;22600;48.186;11.526;2022-11-15T12:49:02;18.40;72.90
34640;DHT22;22600;48.186;11.526;2022-11-15T12:59:57;18.40;73.00
34640;DHT22;22600;48.186;11.526;2022-11-15T13:02:30;18.40;72.30
34640;DHT22;22600;48.186;11.526;2022-11-15T13:17:53;18.40;72.30
34640;DHT22;22600;48.186;11.526;2022-11-15T13:20:29;18.40;72.90
34640;DHT22;22600;48.186;11.526;2022-11-15T13:23:12;18.40;72.90
34640;DHT22;22600;48.186;11.526;2022-11-15T13:28:35;18.40;72.90
34640;DHT22;22600;48.186;11.526;2022-11-15T13:31:26;18.40;73.00
34640;DHT22;22600;48.186;11.526;2022-11-15T13:33:55;18.40;72.50
34640;DHT22;22600;48.186;11.526;2022-11-15T13:36:32;18.40;73.00
34640;DHT22;22600;48.186;11.526;2022-11-15T13:39:11;18.40;72.50
34640;DHT22;22600;48.186;11.526;2022-11-15T13:41:46;18.40;72.50
34640;DHT22;22600;48.186;11.526;2022-11-15T13:44:29;18.40;72.50
34640;DHT22;22600;48.186;11.526;2022-11-15T13:47:06;18.40;72.60
34640;DHT22;22600;48.186;11.526;2022-11-15T13:49:33;18.40;73.10
34640;DHT22;22600;48.186;11.526;2022-11-15T13:52:01;18.40;73.10
34640;DHT22;22600;48.186;11.526;2022-11-15T13:54:35;18.40;73.10
34640;DHT22;22600;48.186;11.526;2022-11-15T13:59:43;18.40;73.20
34640;DHT22;22600;48.186;11.526;2022-11-15T14:02:15;18.40;73.20
34640;DHT22;22600;48.186;11.526;2022-11-15T14:05:17;18.40;73.20
34640;DHT22;22600;48.186;11.526;2022-11-15T14:07:56;18.40;73.20
34640;DHT22;22600;48.186;11.526;2022-11-15T14:10:29;18.40;73.30
34640;DHT22;22600;48.186;11.526;2022-11-15T14:12:55;18.40;73.20
34640;DHT22;22600;48.186;11.526;2022-11-15T14:15:38;18.40;72.70
34640;DHT22;22600;48.186;11.526;2022-11-15T14:18:05;18.40;73.30
34640;DHT22;22600;48.186;11.526;2022-11-15T14:23:25;18.40;73.30
34640;DHT22;22600;48.186;11.526;2022-11-15T14:25:58;18.40;73.30
34640;DHT22;22600;48.186;11.526;2022-11-15T14:30:55;18.50;73.40
34640;DHT22;22600;48.186;11.526;2022-11-15T14:35:54;18.40;73.40
34640;DHT22;22600;48.186;11.526;2022-11-15T14:38:25;18.40;73.40
34640;DHT22;22600;48.186;11.526;2022-11-15T14:40:51;18.40;73.40
34640;DHT22;22600;48.186;11.526;2022-11-15T14:43:17;18.40;73.30
34640;DHT22;22600;48.186;11.526;2022-11-15T14:45:43;18.40;73.30
34640;DHT22;22600;48.186;11.526;2022-11-15T14:48:08;18.40;73.30
34640;DHT22;22600;48.186;11.526;2022-11-15T14:50:35;18.40;73.30
34640;DHT22;22600;48.186;11.526;2022-11-15T14:53:02;18.40;73.30
34640;DHT22;22600;48.186;11.526;2022-11-15T14:55:30;18.40;73.30
34640;DHT22;22600;48.186;11.526;2022-11-15T14:58:04;18.40;73.30
34640;DHT22;22600;48.186;11.526;2022-11-15T15:00:34;18.40;73.30
34640;DHT22;22600;48.186;11.526;2022-11-15T15:03:00;18.40;72.70
34640;DHT22;22600;48.186;11.526;2022-11-15T15:05:40;18.40;72.70
34640;DHT22;22600;48.186;11.526;2022-11-15T15:08:06;18.40;73.30
34640;DHT22;22600;48.186;11.526;2022-11-15T15:10:41;18.40;72.70
34640;DHT22;22600;48.186;11.526;2022-11-15T15:13:25;18.50;73.30
34640;DHT22;22600;48.186;11.526;2022-11-15T15:15:52;18.40;73.20
34640;DHT22;22600;48.186;11.526;2022-11-15T15:18:18;18.40;73.20
34640;DHT22;22600;48.186;11.526;2022-11-15T15:20:45;18.40;72.70
34640;DHT22;22600;48.186;11.526;2022-11-15T15:23:17;18.40;72.60
34640;DHT22;22600;48.186;11.526;2022-11-15T15:25:43;18.40;72.60
34640;DHT22;22600;48.186;11.526;2022-11-15T15:28:10;18.40;73.20
34640;DHT22;22600;48.186;11.526;2022-11-15T15:30:36;18.40;73.20
34640;DHT22;22600;48.186;11.526;2022-11-15T15:33:02;18.40;73.30
34640;DHT22;22600;48.186;11.526;2022-11-15T15:35:30;18.30;72.60
34640;DHT22;22600;48.186;11.526;2022-11-15T15:37:57;18.30;73.30
34640;DHT22;22600;48.186;11.526;2022-11-15T15:40:24;18.40;73.30
34640;DHT22;22600;48.186;11.526;2022-11-15T15:42:50;18.40;73.20
34640;DHT22;22600;48.186;11.526;2022-11-15T15:45:17;18.40;72.70
34640;DHT22;22600;48.186;11.526;2022-11-15T15:47:44;18.30;73.30
34640;DHT22;22600;48.186;11.526;2022-11-15T15:50:30;18.40;73.20
34640;DHT22;22600;48.186;11.526;2022-11-15T15:52:58;18.30;73.20
34640;DHT22;22600;48.186;11.526;2022-11-15T15:55:24;18.40;73.20
34640;DHT22;22600;48.186;11.526;2022-11-15T15:57:51;18.30;73.20
34640;DHT22;22600;48.186;11.526;2022-11-15T16:00:17;18.40;73.20
34640;DHT22;22600;48.186;11.526;2022-11-15T16:02:43;18.30;73.20
34640;DHT22;22600;48.186;11.526;2022-11-15T16:05:10;18.30;73.20
34640;DHT22;22600;48.186;11.526;2022-11-15T16:07:36;18.30;72.60
34640;DHT22;22600;48.186;11.526;2022-11-15T16:12:41;18.40;73.30
34640;DHT22;22600;48.186;11.526;2022-11-15T16:15:08;18.30;73.30
34640;DHT22;22600;48.186;11.526;2022-11-15T16:17:37;18.30;72.80
34640;DHT22;22600;48.186;11.526;2022-11-15T16:20:04;20.40;74.70
34640;DHT22;22600;48.186;11.526;2022-11-15T16:22:30;18.30;73.40
34640;DHT22;22600;48.186;11.526;2022-11-15T16:24:56;18.30;73.40
34640;DHT22;22600;48.186;11.526;2022-11-15T16:27:22;18.40;73.40
34640;DHT22;22600;48.186;11.526;2022-11-15T16:29:48;18.30;73.40
34640;DHT22;22600;48.186;11.526;2022-11-15T16:32:14;18.40;73.40
34640;DHT22;22600;48.186;11.526;2022-11-15T16:34:41;18.30;73.40
34640;DHT22;22600;48.186;11.526;2022-11-15T16:37:20;18.30;73.40
34640;DHT22;22600;48.186;11.526;2022-11-15T16:39:46;18.30;73.40
34640;DHT22;22600;48.186;11.526;2022-11-15T16:42:11;18.40;73.50
34640;DHT22;22600;48.186;11.526;2022-11-15T16:44:37;18.30;73.50
34640;DHT22;22600;48.186;11.526;2022-11-15T16:47:03;18.30;73.50
34640;DHT22;22600;48.186;11.526;2022-11-15T16:49:28;18.30;73.50
34640;DHT22;22600;48.186;11.526;2022-11-15T16:51:54;18.30;73.00
34640;DHT22;22600;48.186;11.526;2022-11-15T16:56:45;18.30;72.90
34640;DHT22;22600;48.186;11.526;2022-11-15T16:59:15;18.40;73.60
34640;DHT22;22600;48.186;11.526;2022-11-15T17:01:42;18.30;72.90
34640;DHT22;22600;48.186;11.526;2022-11-15T17:04:18;18.30;73.50
34640;DHT22;22600;48.186;11.526;2022-11-15T17:06:46;18.40;73.70
34640;DHT22;22600;48.186;11.526;2022-11-15T17:09:22;18.30;73.10
34640;DHT22;22600;48.186;11.526;2022-11-15T17:11:51;18.30;73.20
34640;DHT22;22600;48.186;11.526;2022-11-15T17:14:17;18.30;73.80
34640;DHT22;22600;48.186;11.526;2022-11-15T17:16:43;18.30;73.80
34640;DHT22;22600;48.186;11.526;2022-11-15T17:21:39;18.30;73.20
34640;DHT22;22600;48.186;11.526;2022-11-15T17:24:05;18.30;73.80
34640;DHT22;22600;48.186;11.526;2022-11-15T17:26:31;18.30;73.70
34640;DHT22;22600;48.186;11.526;2022-11-15T17:28:56;18.40;73.80
34640;DHT22;22600;48.186;11.526;2022-11-15T17:31:22;18.30;73.10
34640;DHT22;22600;48.186;11.526;2022-11-15T17:33:49;18.40;73.70
34640;DHT22;22600;48.186;11.526;2022-11-15T17:36:15;18.40;73.70
34640;DHT22;22600;48.186;11.526;2022-11-15T17:38:41;18.40;73.80
34640;DHT22;22600;48.186;11.526;2022-11-15T17:41:12;18.30;73.20
34640;DHT22;22600;48.186;11.526;2022-11-15T17:43:39;16.50;72.60
34640;DHT22;22600;48.186;11.526;2022-11-15T17:46:07;18.30;73.80
34640;DHT22;22600;48.186;11.526;2022-11-15T17:48:33;18.30;73.70